sensor_id;sensor_type;location;lat;lon;timestamp;pressure;altitude;pressure_sealevel;temperature
15709;BMP180;7954;51.914;8.420;2022-10-17T00:00:21;100532.66;;;22.13
15709;BMP180;7954;51.914;8.420;2022-10-17T00:02:49;100528.41;;;22.14
15709;BMP180;7954;51.914;8.420;2022-10-17T00:05:18;100540.16;;;22.12
15709;BMP180;7954;51.914;8.420;2022-10-17T00:07:47;100536.66;;;22.11
15709;BMP180;7954;51.914;8.420;2022-10-17T00:10:15;100538.34;;;22.11
15709;BMP180;7954;51.914;8.420;2022-10-17T00:12:44;100539.78;;;22.09
15709;BMP180;7954;51.914;8.420;2022-10-17T00:15:15;100546.06;;;22.11
15709;BMP180;7954;51.914;8.420;2022-10-17T00:17:44;100546.06;;;22.11
15709;BMP180;7954;51.914;8.420;2022-10-17T00:20:14;100550.81;;;22.08
15709;BMP180;7954;51.914;8.420;2022-10-17T00:22:43;100539.44;;;22.06
15709;BMP180;7954;51.914;8.420;2022-10-17T00:25:11;100548.06;;;22.06
15709;BMP180;7954;51.914;8.420;2022-10-17T00:27:40;100547.16;;;22.06
15709;BMP180;7954;51.914;8.420;2022-10-17T00:30:10;100548.78;;;22.05
15709;BMP180;7954;51.914;8.420;2022-10-17T00:32:39;100544.75;;;22.07
15709;BMP180;7954;51.914;8.420;2022-10-17T00:35:07;100549.72;;;22.06
15709;BMP180;7954;51.914;8.420;2022-10-17T00:37:35;100546.19;;;22.05
15709;BMP180;7954;51.914;8.420;2022-10-17T00:40:07;100549.31;;;22.03
15709;BMP180;7954;51.914;8.420;2022-10-17T00:42:36;100542.31;;;22.02
15709;BMP180;7954;51.914;8.420;2022-10-17T00:45:15;100538.13;;;22.02
15709;BMP180;7954;51.914;8.420;2022-10-17T00:47:46;100539.56;;;22.00
15709;BMP180;7954;51.914;8.420;2022-10-17T00:50:14;100537.94;;;22.01
15709;BMP180;7954;51.914;8.420;2022-10-17T00:52:44;100539.41;;;21.99
15709;BMP180;7954;51.914;8.420;2022-10-17T00:55:17;100538.28;;;21.97
15709;BMP180;7954;51.914;8.420;2022-10-17T00:57:47;100538.28;;;21.97
15709;BMP180;7954;51.914;8.420;2022-10-17T01:00:16;100533.66;;;21.95
15709;BMP180;7954;51.914;8.420;2022-10-17T01:02:44;100539.75;;;21.95
15709;BMP180;7954;51.914;8.420;2022-10-17T01:05:13;100543.06;;;21.94
15709;BMP180;7954;51.914;8.420;2022-10-17T01:07:42;100537.72;;;21.93
15709;BMP180;7954;51.914;8.420;2022-10-17T01:10:11;100533.31;;;21.92
15709;BMP180;7954;51.914;8.420;2022-10-17T01:12:51;100546.34;;;21.93
15709;BMP180;7954;51.914;8.420;2022-10-17T01:15:31;100545.44;;;21.93
15709;BMP180;7954;51.914;8.420;2022-10-17T01:18:12;100543.78;;;21.93
15709;BMP180;7954;51.914;8.420;2022-10-17T01:20:59;100540.13;;;21.91
15709;BMP180;7954;51.914;8.420;2022-10-17T01:23:53;100542.16;;;21.94
15709;BMP180;7954;51.914;8.420;2022-10-17T01:26:28;100530.56;;;21.90
15709;BMP180;7954;51.914;8.420;2022-10-17T01:29:22;100534.22;;;21.92
15709;BMP180;7954;51.914;8.420;2022-10-17T01:32:00;100537.53;;;21.91
15709;BMP180;7954;51.914;8.420;2022-10-17T01:34:33;100540.44;;;21.87
15709;BMP180;7954;51.914;8.420;2022-10-17T01:37:05;100544.50;;;21.85
15709;BMP180;7954;51.914;8.420;2022-10-17T01:39:40;100538.63;;;21.86
15709;BMP180;7954;51.914;8.420;2022-10-17T01:42:16;100542.13;;;21.87
15709;BMP180;7954;51.914;8.420;2022-10-17T01:44:51;100539.34;;;21.85
15709;BMP180;7954;51.914;8.420;2022-10-17T01:47:26;100526.50;;;21.85
15709;BMP180;7954;51.914;8.420;2022-10-17T01:49:57;100526.31;;;21.84
15709;BMP180;7954;51.914;8.420;2022-10-17T01:52:29;100522.44;;;21.80
15709;BMP180;7954;51.914;8.420;2022-10-17T01:55:04;100524.28;;;21.81
15709;BMP180;7954;51.914;8.420;2022-10-17T01:57:36;100515.44;;;21.79
15709;BMP180;7954;51.914;8.420;2022-10-17T02:00:09;100511.97;;;21.79
15709;BMP180;7954;51.914;8.420;2022-10-17T02:02:42;100516.91;;;21.77
15709;BMP180;7954;51.914;8.420;2022-10-17T02:05:11;100507.38;;;21.76
15709;BMP180;7954;51.914;8.420;2022-10-17T02:07:40;100511.75;;;21.77
15709;BMP180;7954;51.914;8.420;2022-10-17T02:10:12;100506.63;;;21.77
15709;BMP180;7954;51.914;8.420;2022-10-17T02:12:48;100501.88;;;21.80
15709;BMP180;7954;51.914;8.420;2022-10-17T02:15:41;100501.88;;;21.80
15709;BMP180;7954;51.914;8.420;2022-10-17T02:18:28;100493.03;;;21.78
15709;BMP180;7954;51.914;8.420;2022-10-17T02:21:05;100501.88;;;21.80
15709;BMP180;7954;51.914;8.420;2022-10-17T02:23:40;100506.63;;;21.77
15709;BMP180;7954;51.914;8.420;2022-10-17T02:26:18;100493.03;;;21.78
15709;BMP180;7954;51.914;8.420;2022-10-17T02:28:54;100493.03;;;21.78
15709;BMP180;7954;51.914;8.420;2022-10-17T02:31:28;100483.28;;;21.76
15709;BMP180;7954;51.914;8.420;2022-10-17T02:34:01;100484.97;;;21.75
15709;BMP180;7954;51.914;8.420;2022-10-17T02:36:35;100500.94;;;21.73
15709;BMP180;7954;51.914;8.420;2022-10-17T02:39:05;100495.59;;;21.71
15709;BMP180;7954;51.914;8.420;2022-10-17T02:41:34;100491.91;;;21.69
15709;BMP180;7954;51.914;8.420;2022-10-17T02:44:04;100491.00;;;21.69
15709;BMP180;7954;51.914;8.420;2022-10-17T02:46:34;100494.47;;;21.69
15709;BMP180;7954;51.914;8.420;2022-10-17T02:49:12;100491.19;;;21.70
15709;BMP180;7954;51.914;8.420;2022-10-17T02:51:46;100496.50;;;21.72
15709;BMP180;7954;51.914;8.420;2022-10-17T02:54:19;100486.78;;;21.69
15709;BMP180;7954;51.914;8.420;2022-10-17T02:56:53;100488.63;;;21.70
15709;BMP180;7954;51.914;8.420;2022-10-17T02:59:23;100493.34;;;21.67
15709;BMP180;7954;51.914;8.420;2022-10-17T03:01:53;100498.31;;;21.66
15709;BMP180;7954;51.914;8.420;2022-10-17T03:04:22;100494.84;;;21.65
15709;BMP180;7954;51.914;8.420;2022-10-17T03:06:50;100495.75;;;21.66
15709;BMP180;7954;51.914;8.420;2022-10-17T03:09:20;100492.09;;;21.64
15709;BMP180;7954;51.914;8.420;2022-10-17T03:11:47;100496.28;;;21.63
15709;BMP180;7954;51.914;8.420;2022-10-17T03:14:15;100486.94;;;21.64
15709;BMP180;7954;51.914;8.420;2022-10-17T03:16:43;100486.00;;;21.63
15709;BMP180;7954;51.914;8.420;2022-10-17T03:19:13;100482.53;;;21.63
15709;BMP180;7954;51.914;8.420;2022-10-17T03:21:42;100498.84;;;21.63
15709;BMP180;7954;51.914;8.420;2022-10-17T03:24:11;100490.78;;;21.60
15709;BMP180;7954;51.914;8.420;2022-10-17T03:26:39;100495.94;;;21.60
15709;BMP180;7954;51.914;8.420;2022-10-17T03:29:07;100496.84;;;21.61
15709;BMP180;7954;51.914;8.420;2022-10-17T03:31:35;100508.59;;;21.59
15709;BMP180;7954;51.914;8.420;2022-10-17T03:34:04;100509.50;;;21.59
15709;BMP180;7954;51.914;8.420;2022-10-17T03:36:32;100503.63;;;21.60
15709;BMP180;7954;51.914;8.420;2022-10-17T03:39:01;100499.03;;;21.58
15709;BMP180;7954;51.914;8.420;2022-10-17T03:41:29;100503.25;;;21.57
15709;BMP180;7954;51.914;8.420;2022-10-17T03:43:57;100506.34;;;21.55
15709;BMP180;7954;51.914;8.420;2022-10-17T03:46:25;100508.75;;;21.53
15709;BMP180;7954;51.914;8.420;2022-10-17T03:48:54;100502.88;;;21.54
15709;BMP180;7954;51.914;8.420;2022-10-17T03:51:21;100505.44;;;21.54
15709;BMP180;7954;51.914;8.420;2022-10-17T03:53:49;100505.06;;;21.51
15709;BMP180;7954;51.914;8.420;2022-10-17T03:56:20;100505.97;;;21.52
15709;BMP180;7954;51.914;8.420;2022-10-17T03:58:50;100507.66;;;21.51
15709;BMP180;7954;51.914;8.420;2022-10-17T04:01:19;100514.38;;;21.51
15709;BMP180;7954;51.914;8.420;2022-10-17T04:03:48;100510.50;;;21.47
15709;BMP180;7954;51.914;8.420;2022-10-17T04:06:16;100513.06;;;21.47
15709;BMP180;7954;51.914;8.420;2022-10-17T04:08:44;100507.94;;;21.47
15709;BMP180;7954;51.914;8.420;2022-10-17T04:11:14;100501.16;;;21.48
15709;BMP180;7954;51.914;8.420;2022-10-17T04:13:44;100492.50;;;21.47
15709;BMP180;7954;51.914;8.420;2022-10-17T04:16:14;100500.56;;;21.43
15709;BMP180;7954;51.914;8.420;2022-10-17T04:18:42;100501.69;;;21.45
15709;BMP180;7954;51.914;8.420;2022-10-17T04:21:11;100512.72;;;21.44
15709;BMP180;7954;51.914;8.420;2022-10-17T04:23:40;100516.00;;;21.43
15709;BMP180;7954;51.914;8.420;2022-10-17T04:26:08;100515.28;;;21.44
15709;BMP180;7954;51.914;8.420;2022-10-17T04:28:36;100510.84;;;21.43
15709;BMP180;7954;51.914;8.420;2022-10-17T04:31:08;100512.13;;;21.40
15709;BMP180;7954;51.914;8.420;2022-10-17T04:33:37;100508.66;;;21.39
15709;BMP180;7954;51.914;8.420;2022-10-17T04:36:06;100511.03;;;21.38
15709;BMP180;7954;51.914;8.420;2022-10-17T04:38:34;100512.34;;;21.41
15709;BMP180;7954;51.914;8.420;2022-10-17T04:41:05;100521.50;;;21.39
15709;BMP180;7954;51.914;8.420;2022-10-17T04:43:36;100520.38;;;21.37
15709;BMP180;7954;51.914;8.420;2022-10-17T04:46:07;100523.16;;;21.39
15709;BMP180;7954;51.914;8.420;2022-10-17T04:48:36;100522.22;;;21.38
15709;BMP180;7954;51.914;8.420;2022-10-17T04:51:07;100523.69;;;21.36
15709;BMP180;7954;51.914;8.420;2022-10-17T04:53:36;100528.84;;;21.36
15709;BMP180;7954;51.914;8.420;2022-10-17T04:56:09;100533.03;;;21.36
15709;BMP180;7954;51.914;8.420;2022-10-17T04:58:38;100542.41;;;21.35
15709;BMP180;7954;51.914;8.420;2022-10-17T05:01:10;100536.53;;;21.36
15709;BMP180;7954;51.914;8.420;2022-10-17T05:03:39;100515.75;;;21.35
15709;BMP180;7954;51.914;8.420;2022-10-17T05:06:11;100520.72;;;21.33
15709;BMP180;7954;51.914;8.420;2022-10-17T05:08:39;100526.56;;;21.32
15709;BMP180;7954;51.914;8.420;2022-10-17T05:11:15;100521.44;;;21.32
15709;BMP180;7954;51.914;8.420;2022-10-17T05:13:43;100521.97;;;21.30
15709;BMP180;7954;51.914;8.420;2022-10-17T05:16:13;100516.66;;;21.29
15709;BMP180;7954;51.914;8.420;2022-10-17T05:18:41;100518.31;;;21.28
15709;BMP180;7954;51.914;8.420;2022-10-17T05:21:11;100521.78;;;21.29
15709;BMP180;7954;51.914;8.420;2022-10-17T05:23:39;100522.75;;;21.29
15709;BMP180;7954;51.914;8.420;2022-10-17T05:26:07;100514.09;;;21.29
15709;BMP180;7954;51.914;8.420;2022-10-17T05:28:34;100511.53;;;21.29
15709;BMP180;7954;51.914;8.420;2022-10-17T05:31:03;100535.03;;;21.32
15709;BMP180;7954;51.914;8.420;2022-10-17T05:33:32;100514.09;;;21.29
15709;BMP180;7954;51.914;8.420;2022-10-17T05:36:01;100515.94;;;21.30
15709;BMP180;7954;51.914;8.420;2022-10-17T05:38:29;100511.91;;;21.32
15709;BMP180;7954;51.914;8.420;2022-10-17T05:40:57;100517.78;;;21.31
15709;BMP180;7954;51.914;8.420;2022-10-17T05:43:26;100503.09;;;21.30
15709;BMP180;7954;51.914;8.420;2022-10-17T05:45:54;100514.28;;;21.30
15709;BMP180;7954;51.914;8.420;2022-10-17T05:48:22;100505.66;;;21.30
15709;BMP180;7954;51.914;8.420;2022-10-17T05:50:58;100511.16;;;21.32
15709;BMP180;7954;51.914;8.420;2022-10-17T05:53:29;100518.88;;;21.32
15709;BMP180;7954;51.914;8.420;2022-10-17T05:55:58;100518.16;;;21.33
15709;BMP180;7954;51.914;8.420;2022-10-17T05:58:27;100522.94;;;21.37
15709;BMP180;7954;51.914;8.420;2022-10-17T06:01:16;100526.47;;;21.45
15709;BMP180;7954;51.914;8.420;2022-10-17T06:03:44;100521.91;;;21.49
15709;BMP180;7954;51.914;8.420;2022-10-17T06:06:14;100524.66;;;21.51
15709;BMP180;7954;51.914;8.420;2022-10-17T06:08:44;100524.16;;;21.53
15709;BMP180;7954;51.914;8.420;2022-10-17T06:11:12;100539.41;;;21.52
15709;BMP180;7954;51.914;8.420;2022-10-17T06:13:41;100543.81;;;21.53
15709;BMP180;7954;51.914;8.420;2022-10-17T06:16:09;100545.44;;;21.52
15709;BMP180;7954;51.914;8.420;2022-10-17T06:18:37;100553.56;;;21.55
15709;BMP180;7954;51.914;8.420;2022-10-17T06:21:08;100548.41;;;21.55
15709;BMP180;7954;51.914;8.420;2022-10-17T06:23:38;100550.25;;;21.56
15709;BMP180;7954;51.914;8.420;2022-10-17T06:26:07;100551.16;;;21.57
15709;BMP180;7954;51.914;8.420;2022-10-17T06:28:37;100560.91;;;21.59
15709;BMP180;7954;51.914;8.420;2022-10-17T06:31:07;100563.84;;;21.62
15709;BMP180;7954;51.914;8.420;2022-10-17T06:33:36;100566.63;;;21.64
15709;BMP180;7954;51.914;8.420;2022-10-17T06:36:06;100569.59;;;21.67
15709;BMP180;7954;51.914;8.420;2022-10-17T06:38:37;100583.38;;;21.74
15709;BMP180;7954;51.914;8.420;2022-10-17T06:41:09;100588.00;;;21.77
15709;BMP180;7954;51.914;8.420;2022-10-17T06:43:40;100591.50;;;21.84
15709;BMP180;7954;51.914;8.420;2022-10-17T06:46:12;100593.19;;;21.91
15709;BMP180;7954;51.914;8.420;2022-10-17T06:48:42;100593.22;;;21.98
15709;BMP180;7954;51.914;8.420;2022-10-17T06:51:11;100595.25;;;22.00
15709;BMP180;7954;51.914;8.420;2022-10-17T06:53:41;100599.31;;;22.05
15709;BMP180;7954;51.914;8.420;2022-10-17T06:56:09;100618.28;;;22.12
15709;BMP180;7954;51.914;8.420;2022-10-17T06:58:38;100621.94;;;22.14
15709;BMP180;7954;51.914;8.420;2022-10-17T07:01:08;100627.84;;;22.20
15709;BMP180;7954;51.914;8.420;2022-10-17T07:03:37;100624.00;;;22.24
15709;BMP180;7954;51.914;8.420;2022-10-17T07:06:09;100629.00;;;22.29
15709;BMP180;7954;51.914;8.420;2022-10-17T07:08:43;100634.00;;;22.35
15709;BMP180;7954;51.914;8.420;2022-10-17T07:11:13;100631.63;;;22.36
15709;BMP180;7954;51.914;8.420;2022-10-17T07:13:44;100631.44;;;22.42
15709;BMP180;7954;51.914;8.420;2022-10-17T07:16:12;100625.41;;;22.48
15709;BMP180;7954;51.914;8.420;2022-10-17T07:18:47;100621.88;;;22.48
15709;BMP180;7954;51.914;8.420;2022-10-17T07:21:15;100634.63;;;22.53
15709;BMP180;7954;51.914;8.420;2022-10-17T07:23:46;100634.25;;;22.57
15709;BMP180;7954;51.914;8.420;2022-10-17T07:26:16;100642.91;;;22.64
15709;BMP180;7954;51.914;8.420;2022-10-17T07:28:46;100634.09;;;22.69
15709;BMP180;7954;51.914;8.420;2022-10-17T07:31:17;100644.38;;;22.76
15709;BMP180;7954;51.914;8.420;2022-10-17T07:33:46;100644.94;;;22.81
15709;BMP180;7954;51.914;8.420;2022-10-17T07:36:14;100642.56;;;22.89
15709;BMP180;7954;51.914;8.420;2022-10-17T07:38:46;100641.47;;;22.94
15709;BMP180;7954;51.914;8.420;2022-10-17T07:41:14;100641.88;;;23.04
15709;BMP180;7954;51.914;8.420;2022-10-17T07:43:49;100646.50;;;23.14
15709;BMP180;7954;51.914;8.420;2022-10-17T07:46:17;100637.84;;;23.20
15709;BMP180;7954;51.914;8.420;2022-10-17T07:48:45;100637.47;;;23.31
15709;BMP180;7954;51.914;8.420;2022-10-17T07:51:14;100642.41;;;23.43
15709;BMP180;7954;51.914;8.420;2022-10-17T07:53:43;100647.72;;;23.52
15709;BMP180;7954;51.914;8.420;2022-10-17T07:56:16;100651.41;;;23.61
15709;BMP180;7954;51.914;8.420;2022-10-17T07:58:47;100649.22;;;23.71
15709;BMP180;7954;51.914;8.420;2022-10-17T08:01:15;100651.41;;;23.75
15709;BMP180;7954;51.914;8.420;2022-10-17T08:03:45;100648.44;;;23.79
15709;BMP180;7954;51.914;8.420;2022-10-17T08:06:15;100647.09;;;23.89
15709;BMP180;7954;51.914;8.420;2022-10-17T08:08:45;100629.59;;;23.94
15709;BMP180;7954;51.914;8.420;2022-10-17T08:11:14;100623.31;;;23.98
15709;BMP180;7954;51.914;8.420;2022-10-17T08:13:44;100625.50;;;24.09
15709;BMP180;7954;51.914;8.420;2022-10-17T08:16:12;100620.47;;;24.18
15709;BMP180;7954;51.914;8.420;2022-10-17T08:18:42;100612.50;;;24.23
15709;BMP180;7954;51.914;8.420;2022-10-17T08:21:11;100614.66;;;24.34
15709;BMP180;7954;51.914;8.420;2022-10-17T08:23:39;100619.63;;;24.40
15709;BMP180;7954;51.914;8.420;2022-10-17T08:26:09;100617.94;;;24.47
15709;BMP180;7954;51.914;8.420;2022-10-17T08:28:39;100595.06;;;24.50
15709;BMP180;7954;51.914;8.420;2022-10-17T08:31:12;100601.25;;;24.59
15709;BMP180;7954;51.914;8.420;2022-10-17T08:33:44;100603.78;;;24.66
15709;BMP180;7954;51.914;8.420;2022-10-17T08:36:24;100603.16;;;24.75
15709;BMP180;7954;51.914;8.420;2022-10-17T08:38:54;100598.84;;;24.83
15709;BMP180;7954;51.914;8.420;2022-10-17T08:41:37;100599.84;;;24.99
15709;BMP180;7954;51.914;8.420;2022-10-17T08:44:14;100594.56;;;25.13
15709;BMP180;7954;51.914;8.420;2022-10-17T08:46:47;100598.44;;;25.31
15709;BMP180;7954;51.914;8.420;2022-10-17T08:49:22;100606.84;;;25.44
15709;BMP180;7954;51.914;8.420;2022-10-17T08:51:59;100597.81;;;25.56
15709;BMP180;7954;51.914;8.420;2022-10-17T08:54:38;100598.28;;;25.68
15709;BMP180;7954;51.914;8.420;2022-10-17T08:57:10;100599.53;;;25.71
15709;BMP180;7954;51.914;8.420;2022-10-17T08:59:38;100601.72;;;25.75
15709;BMP180;7954;51.914;8.420;2022-10-17T09:02:21;100603.78;;;25.86
15709;BMP180;7954;51.914;8.420;2022-10-17T09:05:03;100602.97;;;25.94
15709;BMP180;7954;51.914;8.420;2022-10-17T09:07:42;100590.69;;;26.00
15709;BMP180;7954;51.914;8.420;2022-10-17T09:10:14;100600.19;;;26.08
15709;BMP180;7954;51.914;8.420;2022-10-17T09:12:48;100613.06;;;26.15
15709;BMP180;7954;51.914;8.420;2022-10-17T09:15:36;100608.44;;;26.28
15709;BMP180;7954;51.914;8.420;2022-10-17T09:18:12;100614.19;;;26.41
15709;BMP180;7954;51.914;8.420;2022-10-17T09:20:51;100594.94;;;26.54
15709;BMP180;7954;51.914;8.420;2022-10-17T09:23:22;100597.50;;;26.69
15709;BMP180;7954;51.914;8.420;2022-10-17T09:25:53;100595.72;;;26.77
15709;BMP180;7954;51.914;8.420;2022-10-17T09:28:26;100590.09;;;26.81
15709;BMP180;7954;51.914;8.420;2022-10-17T09:30:58;100592.63;;;26.96
15709;BMP180;7954;51.914;8.420;2022-10-17T09:33:32;100582.00;;;27.02
15709;BMP180;7954;51.914;8.420;2022-10-17T09:36:22;100581.59;;;27.14
15709;BMP180;7954;51.914;8.420;2022-10-17T09:38:52;100589.97;;;27.20
15709;BMP180;7954;51.914;8.420;2022-10-17T09:41:25;100599.16;;;27.25
15709;BMP180;7954;51.914;8.420;2022-10-17T09:44:17;100595.69;;;27.33
15709;BMP180;7954;51.914;8.420;2022-10-17T09:47:05;100597.25;;;27.39
15709;BMP180;7954;51.914;8.420;2022-10-17T09:49:40;100608.25;;;27.45
15709;BMP180;7954;51.914;8.420;2022-10-17T09:52:10;100603.25;;;27.55
15709;BMP180;7954;51.914;8.420;2022-10-17T09:54:44;100598.88;;;27.63
15709;BMP180;7954;51.914;8.420;2022-10-17T09:57:13;100605.00;;;27.72
15709;BMP180;7954;51.914;8.420;2022-10-17T09:59:43;100603.31;;;27.81
15709;BMP180;7954;51.914;8.420;2022-10-17T10:02:20;100611.44;;;28.00
15709;BMP180;7954;51.914;8.420;2022-10-17T10:04:56;100604.44;;;27.99
15709;BMP180;7954;51.914;8.420;2022-10-17T10:07:32;100606.09;;;27.91
15709;BMP180;7954;51.914;8.420;2022-10-17T10:10:02;100612.63;;;27.87
15709;BMP180;7954;51.914;8.420;2022-10-17T10:12:32;100612.50;;;27.86
15709;BMP180;7954;51.914;8.420;2022-10-17T10:15:00;100612.97;;;27.90
15709;BMP180;7954;51.914;8.420;2022-10-17T10:17:35;100621.69;;;27.99
15709;BMP180;7954;51.914;8.420;2022-10-17T10:20:26;100622.59;;;28.08
15709;BMP180;7954;51.914;8.420;2022-10-17T10:23:04;100625.19;;;28.08
15709;BMP180;7954;51.914;8.420;2022-10-17T10:25:34;100624.28;;;28.07
15709;BMP180;7954;51.914;8.420;2022-10-17T10:28:09;100628.28;;;28.12
15709;BMP180;7954;51.914;8.420;2022-10-17T10:30:37;100626.31;;;28.18
15709;BMP180;7954;51.914;8.420;2022-10-17T10:33:10;100627.09;;;28.17
15709;BMP180;7954;51.914;8.420;2022-10-17T10:35:39;100640.53;;;28.30
15709;BMP180;7954;51.914;8.420;2022-10-17T10:38:09;100634.44;;;28.38
15709;BMP180;7954;51.914;8.420;2022-10-17T10:40:45;100638.69;;;28.46
15709;BMP180;7954;51.914;8.420;2022-10-17T10:43:24;100643.75;;;28.53
15709;BMP180;7954;51.914;8.420;2022-10-17T10:45:54;100650.31;;;28.66
15709;BMP180;7954;51.914;8.420;2022-10-17T10:48:24;100652.47;;;28.79
15709;BMP180;7954;51.914;8.420;2022-10-17T10:50:55;100656.44;;;28.75
15709;BMP180;7954;51.914;8.420;2022-10-17T10:53:31;100656.25;;;28.91
15709;BMP180;7954;51.914;8.420;2022-10-17T10:56:07;100657.00;;;28.98
15709;BMP180;7954;51.914;8.420;2022-10-17T10:58:45;100655.00;;;29.04
15709;BMP180;7954;51.914;8.420;2022-10-17T11:01:21;100653.63;;;28.99
15709;BMP180;7954;51.914;8.420;2022-10-17T11:04:16;100657.94;;;28.99
15709;BMP180;7954;51.914;8.420;2022-10-17T11:06:50;100655.28;;;29.07
15709;BMP180;7954;51.914;8.420;2022-10-17T11:09:27;100662.34;;;29.00
15709;BMP180;7954;51.914;8.420;2022-10-17T11:12:04;100665.28;;;29.03
15709;BMP180;7954;51.914;8.420;2022-10-17T11:14:39;100677.81;;;28.98
15709;BMP180;7954;51.914;8.420;2022-10-17T11:17:15;100683.63;;;28.96
15709;BMP180;7954;51.914;8.420;2022-10-17T11:19:51;100683.03;;;28.90
15709;BMP180;7954;51.914;8.420;2022-10-17T11:22:27;100686.88;;;28.85
15709;BMP180;7954;51.914;8.420;2022-10-17T11:24:58;100701.44;;;28.83
15709;BMP180;7954;51.914;8.420;2022-10-17T11:27:28;100704.50;;;28.79
15709;BMP180;7954;51.914;8.420;2022-10-17T11:29:57;100698.97;;;28.84
15709;BMP180;7954;51.914;8.420;2022-10-17T11:32:28;100706.31;;;28.80
15709;BMP180;7954;51.914;8.420;2022-10-17T11:35:02;100701.09;;;28.80
15709;BMP180;7954;51.914;8.420;2022-10-17T11:37:35;100714.09;;;28.80
15709;BMP180;7954;51.914;8.420;2022-10-17T11:40:14;100714.25;;;28.90
15709;BMP180;7954;51.914;8.420;2022-10-17T11:42:52;100716.28;;;28.84
15709;BMP180;7954;51.914;8.420;2022-10-17T11:45:24;100714.28;;;28.81
15709;BMP180;7954;51.914;8.420;2022-10-17T11:47:57;100719.16;;;28.87
15709;BMP180;7954;51.914;8.420;2022-10-17T11:50:29;100725.59;;;28.90
15709;BMP180;7954;51.914;8.420;2022-10-17T11:53:22;100733.69;;;28.85
15709;BMP180;7954;51.914;8.420;2022-10-17T11:55:52;100745.47;;;28.73
15709;BMP180;7954;51.914;8.420;2022-10-17T11:58:27;100746.88;;;28.78
15709;BMP180;7954;51.914;8.420;2022-10-17T12:01:08;100740.88;;;28.87
15709;BMP180;7954;51.914;8.420;2022-10-17T12:06:44;100736.88;;;28.65
15709;BMP180;7954;51.914;8.420;2022-10-17T12:09:22;100741.31;;;28.58
15709;BMP180;7954;51.914;8.420;2022-10-17T12:11:54;100742.97;;;28.58
15709;BMP180;7954;51.914;8.420;2022-10-17T12:14:49;100725.53;;;28.65
15709;BMP180;7954;51.914;8.420;2022-10-17T12:17:29;100748.03;;;28.56
15709;BMP180;7954;51.914;8.420;2022-10-17T12:20:24;100744.81;;;28.58
15709;BMP180;7954;51.914;8.420;2022-10-17T12:22:54;100742.09;;;28.57
15709;BMP180;7954;51.914;8.420;2022-10-17T12:25:26;100751.56;;;28.48
15709;BMP180;7954;51.914;8.420;2022-10-17T12:28:11;100743.91;;;28.41
15709;BMP180;7954;51.914;8.420;2022-10-17T12:30:51;100749.38;;;28.27
15709;BMP180;7954;51.914;8.420;2022-10-17T12:33:23;100748.28;;;28.25
15709;BMP180;7954;51.914;8.420;2022-10-17T12:42:00;100756.09;;;28.25
15709;BMP180;7954;51.914;8.420;2022-10-17T12:44:34;100743.28;;;28.27
15709;BMP180;7954;51.914;8.420;2022-10-17T12:47:28;100741.88;;;28.30
15709;BMP180;7954;51.914;8.420;2022-10-17T12:50:07;100743.56;;;28.21
15709;BMP180;7954;51.914;8.420;2022-10-17T12:52:59;100740.97;;;28.30
15709;BMP180;7954;51.914;8.420;2022-10-17T12:55:30;100748.16;;;28.32
15709;BMP180;7954;51.914;8.420;2022-10-17T12:58:02;100735.16;;;28.24
15709;BMP180;7954;51.914;8.420;2022-10-17T13:00:36;100731.06;;;28.34
15709;BMP180;7954;51.914;8.420;2022-10-17T13:03:27;100729.25;;;28.42
15709;BMP180;7954;51.914;8.420;2022-10-17T13:05:59;100731.22;;;28.44
15709;BMP180;7954;51.914;8.420;2022-10-17T13:08:31;100742.06;;;28.49
15709;BMP180;7954;51.914;8.420;2022-10-17T13:11:00;100746.50;;;28.50
15709;BMP180;7954;51.914;8.420;2022-10-17T13:13:35;100748.63;;;28.45
15709;BMP180;7954;51.914;8.420;2022-10-17T13:16:05;100750.03;;;28.42
15709;BMP180;7954;51.914;8.420;2022-10-17T13:18:33;100755.22;;;28.50
15709;BMP180;7954;51.914;8.420;2022-10-17T13:21:05;100758.91;;;28.52
15709;BMP180;7954;51.914;8.420;2022-10-17T13:23:36;100753.53;;;28.67
15709;BMP180;7954;51.914;8.420;2022-10-17T13:26:15;100762.63;;;28.79
15709;BMP180;7954;51.914;8.420;2022-10-17T13:28:46;100760.63;;;28.94
15709;BMP180;7954;51.914;8.420;2022-10-17T13:31:29;100756.19;;;29.01
15709;BMP180;7954;51.914;8.420;2022-10-17T13:33:59;100767.81;;;28.96
15709;BMP180;7954;51.914;8.420;2022-10-17T13:36:28;100764.13;;;28.86
15709;BMP180;7954;51.914;8.420;2022-10-17T13:38:59;100781.25;;;28.67
15709;BMP180;7954;51.914;8.420;2022-10-17T13:41:35;100769.03;;;28.74
15709;BMP180;7954;51.914;8.420;2022-10-17T13:44:11;100775.16;;;28.75
15709;BMP180;7954;51.914;8.420;2022-10-17T13:46:40;100766.59;;;28.76
15709;BMP180;7954;51.914;8.420;2022-10-17T13:49:11;100771.78;;;28.76
15709;BMP180;7954;51.914;8.420;2022-10-17T13:51:42;100778.69;;;28.75
15709;BMP180;7954;51.914;8.420;2022-10-17T13:54:33;100780.94;;;28.64
15709;BMP180;7954;51.914;8.420;2022-10-17T13:57:03;100791.63;;;28.42
15709;BMP180;7954;51.914;8.420;2022-10-17T13:59:36;100796.34;;;28.37
15709;BMP180;7954;51.914;8.420;2022-10-17T14:02:08;100788.84;;;28.32
15709;BMP180;7954;51.914;8.420;2022-10-17T14:04:38;100793.63;;;28.44
15709;BMP180;7954;51.914;8.420;2022-10-17T14:07:31;100797.00;;;28.52
15709;BMP180;7954;51.914;8.420;2022-10-17T14:10:25;100803.22;;;28.45
15709;BMP180;7954;51.914;8.420;2022-10-17T14:12:55;100811.66;;;28.51
15709;BMP180;7954;51.914;8.420;2022-10-17T14:15:27;100806.47;;;28.59
15709;BMP180;7954;51.914;8.420;2022-10-17T14:17:59;100810.91;;;28.60
15709;BMP180;7954;51.914;8.420;2022-10-17T14:20:34;100814.59;;;28.54
15709;BMP180;7954;51.914;8.420;2022-10-17T14:23:31;100817.91;;;28.45
15709;BMP180;7954;51.914;8.420;2022-10-17T14:26:10;100814.22;;;28.43
15709;BMP180;7954;51.914;8.420;2022-10-17T14:28:42;100824.78;;;28.36
15709;BMP180;7954;51.914;8.420;2022-10-17T14:31:17;100820.94;;;28.32
15709;BMP180;7954;51.914;8.420;2022-10-17T14:33:47;100831.31;;;28.24
15709;BMP180;7954;51.914;8.420;2022-10-17T14:36:17;100830.28;;;28.06
15709;BMP180;7954;51.914;8.420;2022-10-17T14:38:46;100834.56;;;28.06
15709;BMP180;7954;51.914;8.420;2022-10-17T14:41:22;100832.69;;;27.96
15709;BMP180;7954;51.914;8.420;2022-10-17T14:44:25;100844.03;;;28.05
15709;BMP180;7954;51.914;8.420;2022-10-17T14:46:56;100837.38;;;27.92
15709;BMP180;7954;51.914;8.420;2022-10-17T14:49:32;100842.31;;;27.97